sensor_id;sensor_type;location;lat;lon;timestamp;P1;durP1;ratioP1;P2;durP2;ratioP2
3561;SDS011;1795;52.074;4.754;2022-12-10T00:01:24;51.65;;;26.35;;
3561;SDS011;1795;52.074;4.754;2022-12-10T00:03:53;53.13;;;27.42;;
3561;SDS011;1795;52.074;4.754;2022-12-10T00:06:22;50.65;;;27.35;;
3561;SDS011;1795;52.074;4.754;2022-12-10T00:08:52;50.53;;;27.17;;
3561;SDS011;1795;52.074;4.754;2022-12-10T00:11:21;51.22;;;26.80;;
3561;SDS011;1795;52.074;4.754;2022-12-10T00:13:50;51.33;;;27.60;;
3561;SDS011;1795;52.074;4.754;2022-12-10T00:16:21;54.92;;;29.05;;
3561;SDS011;1795;52.074;4.754;2022-12-10T00:18:50;51.65;;;27.30;;
3561;SDS011;1795;52.074;4.754;2022-12-10T00:21:21;52.00;;;28.38;;
3561;SDS011;1795;52.074;4.754;2022-12-10T00:23:51;52.55;;;28.02;;
3561;SDS011;1795;52.074;4.754;2022-12-10T00:26:20;54.33;;;28.08;;
3561;SDS011;1795;52.074;4.754;2022-12-10T00:28:49;55.10;;;27.27;;
3561;SDS011;1795;52.074;4.754;2022-12-10T00:31:19;51.20;;;26.00;;
3561;SDS011;1795;52.074;4.754;2022-12-10T00:33:50;52.22;;;26.60;;
3561;SDS011;1795;52.074;4.754;2022-12-10T00:36:20;54.40;;;27.70;;
3561;SDS011;1795;52.074;4.754;2022-12-10T00:38:50;60.20;;;27.57;;
3561;SDS011;1795;52.074;4.754;2022-12-10T00:41:19;51.72;;;26.77;;
3561;SDS011;1795;52.074;4.754;2022-12-10T00:43:47;52.03;;;26.02;;
3561;SDS011;1795;52.074;4.754;2022-12-10T00:46:15;53.10;;;27.20;;
3561;SDS011;1795;52.074;4.754;2022-12-10T00:48:46;55.35;;;26.38;;
3561;SDS011;1795;52.074;4.754;2022-12-10T00:51:15;51.80;;;26.33;;
3561;SDS011;1795;52.074;4.754;2022-12-10T00:53:45;56.28;;;28.15;;
3561;SDS011;1795;52.074;4.754;2022-12-10T00:56:14;54.72;;;27.15;;
3561;SDS011;1795;52.074;4.754;2022-12-10T00:58:44;53.08;;;26.42;;
3561;SDS011;1795;52.074;4.754;2022-12-10T01:01:15;51.40;;;25.55;;
3561;SDS011;1795;52.074;4.754;2022-12-10T01:03:46;52.70;;;26.70;;
3561;SDS011;1795;52.074;4.754;2022-12-10T01:06:17;55.08;;;27.13;;
3561;SDS011;1795;52.074;4.754;2022-12-10T01:08:47;55.42;;;27.50;;
3561;SDS011;1795;52.074;4.754;2022-12-10T01:11:17;52.43;;;27.07;;
3561;SDS011;1795;52.074;4.754;2022-12-10T01:13:46;59.15;;;28.67;;
3561;SDS011;1795;52.074;4.754;2022-12-10T01:16:18;58.90;;;27.88;;
3561;SDS011;1795;52.074;4.754;2022-12-10T01:18:48;63.28;;;30.70;;
3561;SDS011;1795;52.074;4.754;2022-12-10T01:21:17;71.72;;;32.00;;
3561;SDS011;1795;52.074;4.754;2022-12-10T01:23:46;67.40;;;31.90;;
3561;SDS011;1795;52.074;4.754;2022-12-10T01:26:17;71.50;;;32.35;;
3561;SDS011;1795;52.074;4.754;2022-12-10T01:28:47;69.60;;;32.53;;
3561;SDS011;1795;52.074;4.754;2022-12-10T01:31:16;72.43;;;33.67;;
3561;SDS011;1795;52.074;4.754;2022-12-10T01:33:48;79.13;;;34.63;;
3561;SDS011;1795;52.074;4.754;2022-12-10T01:36:17;75.88;;;34.03;;
3561;SDS011;1795;52.074;4.754;2022-12-10T01:38:47;78.40;;;34.17;;
3561;SDS011;1795;52.074;4.754;2022-12-10T01:41:16;77.65;;;35.50;;
3561;SDS011;1795;52.074;4.754;2022-12-10T01:43:48;76.50;;;35.88;;
3561;SDS011;1795;52.074;4.754;2022-12-10T01:46:21;77.18;;;36.60;;
3561;SDS011;1795;52.074;4.754;2022-12-10T01:48:51;75.85;;;34.85;;
3561;SDS011;1795;52.074;4.754;2022-12-10T01:51:20;79.17;;;35.03;;
3561;SDS011;1795;52.074;4.754;2022-12-10T01:53:49;84.25;;;38.20;;
3561;SDS011;1795;52.074;4.754;2022-12-10T01:56:18;85.17;;;36.37;;
3561;SDS011;1795;52.074;4.754;2022-12-10T01:58:47;79.53;;;35.83;;
3561;SDS011;1795;52.074;4.754;2022-12-10T02:01:21;83.15;;;38.42;;
3561;SDS011;1795;52.074;4.754;2022-12-10T02:04:03;83.32;;;37.17;;
3561;SDS011;1795;52.074;4.754;2022-12-10T02:06:45;82.80;;;37.90;;
3561;SDS011;1795;52.074;4.754;2022-12-10T02:09:36;84.15;;;38.42;;
3561;SDS011;1795;52.074;4.754;2022-12-10T02:12:11;79.57;;;37.60;;
3561;SDS011;1795;52.074;4.754;2022-12-10T02:14:46;84.18;;;36.80;;
3561;SDS011;1795;52.074;4.754;2022-12-10T02:17:23;80.15;;;36.35;;
3561;SDS011;1795;52.074;4.754;2022-12-10T02:20:00;90.03;;;38.90;;
3561;SDS011;1795;52.074;4.754;2022-12-10T02:22:35;79.35;;;36.78;;
3561;SDS011;1795;52.074;4.754;2022-12-10T02:25:07;85.03;;;37.90;;
3561;SDS011;1795;52.074;4.754;2022-12-10T02:27:40;82.88;;;36.30;;
3561;SDS011;1795;52.074;4.754;2022-12-10T02:30:14;83.22;;;36.08;;
3561;SDS011;1795;52.074;4.754;2022-12-10T02:32:43;84.63;;;38.20;;
3561;SDS011;1795;52.074;4.754;2022-12-10T02:35:14;93.50;;;39.75;;
3561;SDS011;1795;52.074;4.754;2022-12-10T02:37:46;85.03;;;36.47;;
3561;SDS011;1795;52.074;4.754;2022-12-10T02:40:17;84.82;;;38.08;;
3561;SDS011;1795;52.074;4.754;2022-12-10T02:42:50;88.90;;;38.95;;
3561;SDS011;1795;52.074;4.754;2022-12-10T02:45:21;94.38;;;39.25;;
3561;SDS011;1795;52.074;4.754;2022-12-10T02:47:51;93.85;;;39.10;;
3561;SDS011;1795;52.074;4.754;2022-12-10T02:50:21;93.55;;;38.88;;
3561;SDS011;1795;52.074;4.754;2022-12-10T02:52:50;90.97;;;38.65;;
3561;SDS011;1795;52.074;4.754;2022-12-10T02:55:18;81.55;;;37.50;;
3561;SDS011;1795;52.074;4.754;2022-12-10T02:57:50;84.87;;;37.63;;
3561;SDS011;1795;52.074;4.754;2022-12-10T03:00:31;82.80;;;38.57;;
3561;SDS011;1795;52.074;4.754;2022-12-10T03:03:10;83.70;;;38.13;;
3561;SDS011;1795;52.074;4.754;2022-12-10T03:05:45;78.30;;;35.65;;
3561;SDS011;1795;52.074;4.754;2022-12-10T03:08:17;86.88;;;37.78;;
3561;SDS011;1795;52.074;4.754;2022-12-10T03:10:51;80.05;;;36.03;;
3561;SDS011;1795;52.074;4.754;2022-12-10T03:13:23;78.22;;;37.72;;
3561;SDS011;1795;52.074;4.754;2022-12-10T03:15:57;82.18;;;36.63;;
3561;SDS011;1795;52.074;4.754;2022-12-10T03:18:27;75.72;;;34.75;;
3561;SDS011;1795;52.074;4.754;2022-12-10T03:20:59;76.03;;;36.13;;
3561;SDS011;1795;52.074;4.754;2022-12-10T03:23:31;76.57;;;34.97;;
3561;SDS011;1795;52.074;4.754;2022-12-10T03:26:02;74.43;;;33.30;;
3561;SDS011;1795;52.074;4.754;2022-12-10T03:28:32;72.97;;;34.33;;
3561;SDS011;1795;52.074;4.754;2022-12-10T03:31:07;74.88;;;34.28;;
3561;SDS011;1795;52.074;4.754;2022-12-10T03:33:37;76.70;;;33.97;;
3561;SDS011;1795;52.074;4.754;2022-12-10T03:36:06;76.95;;;34.00;;
3561;SDS011;1795;52.074;4.754;2022-12-10T03:38:35;72.78;;;34.95;;
3561;SDS011;1795;52.074;4.754;2022-12-10T03:41:04;72.10;;;34.20;;
3561;SDS011;1795;52.074;4.754;2022-12-10T03:43:32;72.50;;;32.72;;
3561;SDS011;1795;52.074;4.754;2022-12-10T03:46:01;68.53;;;31.63;;
3561;SDS011;1795;52.074;4.754;2022-12-10T03:48:31;66.13;;;32.58;;
3561;SDS011;1795;52.074;4.754;2022-12-10T03:50:59;70.97;;;32.27;;
3561;SDS011;1795;52.074;4.754;2022-12-10T03:53:27;73.97;;;33.60;;
3561;SDS011;1795;52.074;4.754;2022-12-10T03:55:55;65.70;;;29.73;;
3561;SDS011;1795;52.074;4.754;2022-12-10T03:58:23;63.92;;;30.63;;
3561;SDS011;1795;52.074;4.754;2022-12-10T04:00:51;69.47;;;31.42;;
3561;SDS011;1795;52.074;4.754;2022-12-10T04:03:19;63.05;;;29.58;;
3561;SDS011;1795;52.074;4.754;2022-12-10T04:05:48;65.90;;;30.30;;
3561;SDS011;1795;52.074;4.754;2022-12-10T04:08:16;63.80;;;29.23;;
3561;SDS011;1795;52.074;4.754;2022-12-10T04:10:44;62.22;;;27.85;;
3561;SDS011;1795;52.074;4.754;2022-12-10T04:13:12;60.40;;;28.60;;
3561;SDS011;1795;52.074;4.754;2022-12-10T04:15:58;61.63;;;29.45;;
3561;SDS011;1795;52.074;4.754;2022-12-10T04:18:43;60.88;;;28.50;;
3561;SDS011;1795;52.074;4.754;2022-12-10T04:21:12;64.97;;;30.40;;
3561;SDS011;1795;52.074;4.754;2022-12-10T04:23:58;62.08;;;28.38;;
3561;SDS011;1795;52.074;4.754;2022-12-10T04:26:51;58.03;;;28.45;;
3561;SDS011;1795;52.074;4.754;2022-12-10T04:29:20;58.00;;;27.63;;
3561;SDS011;1795;52.074;4.754;2022-12-10T04:31:49;61.75;;;29.02;;
3561;SDS011;1795;52.074;4.754;2022-12-10T04:34:17;56.92;;;27.13;;
3561;SDS011;1795;52.074;4.754;2022-12-10T04:36:47;53.58;;;25.88;;
3561;SDS011;1795;52.074;4.754;2022-12-10T04:39:15;55.58;;;26.80;;
3561;SDS011;1795;52.074;4.754;2022-12-10T04:41:45;60.28;;;28.25;;
3561;SDS011;1795;52.074;4.754;2022-12-10T04:44:14;57.72;;;26.35;;
3561;SDS011;1795;52.074;4.754;2022-12-10T04:46:42;54.70;;;26.17;;
3561;SDS011;1795;52.074;4.754;2022-12-10T04:49:10;53.00;;;25.47;;
3561;SDS011;1795;52.074;4.754;2022-12-10T04:51:38;53.67;;;25.23;;
3561;SDS011;1795;52.074;4.754;2022-12-10T04:54:08;53.70;;;26.15;;
3561;SDS011;1795;52.074;4.754;2022-12-10T04:56:37;53.40;;;25.40;;
3561;SDS011;1795;52.074;4.754;2022-12-10T04:59:05;54.07;;;25.57;;
3561;SDS011;1795;52.074;4.754;2022-12-10T05:01:34;55.53;;;25.40;;
3561;SDS011;1795;52.074;4.754;2022-12-10T05:04:03;56.55;;;26.20;;
3561;SDS011;1795;52.074;4.754;2022-12-10T05:06:33;53.42;;;24.30;;
3561;SDS011;1795;52.074;4.754;2022-12-10T05:09:01;51.58;;;25.30;;
3561;SDS011;1795;52.074;4.754;2022-12-10T05:11:32;51.55;;;24.80;;
3561;SDS011;1795;52.074;4.754;2022-12-10T05:14:01;49.42;;;24.95;;
3561;SDS011;1795;52.074;4.754;2022-12-10T05:16:30;53.97;;;25.50;;
3561;SDS011;1795;52.074;4.754;2022-12-10T05:18:59;54.42;;;26.20;;
3561;SDS011;1795;52.074;4.754;2022-12-10T05:21:28;53.65;;;25.30;;
3561;SDS011;1795;52.074;4.754;2022-12-10T05:24:17;50.20;;;25.17;;
3561;SDS011;1795;52.074;4.754;2022-12-10T05:26:46;49.00;;;24.25;;
3561;SDS011;1795;52.074;4.754;2022-12-10T05:29:17;46.70;;;24.08;;
3561;SDS011;1795;52.074;4.754;2022-12-10T05:31:45;49.08;;;24.83;;
3561;SDS011;1795;52.074;4.754;2022-12-10T05:34:14;45.13;;;24.05;;
3561;SDS011;1795;52.074;4.754;2022-12-10T05:36:42;49.58;;;25.50;;
3561;SDS011;1795;52.074;4.754;2022-12-10T05:39:10;50.72;;;25.33;;
3561;SDS011;1795;52.074;4.754;2022-12-10T05:41:38;48.80;;;24.63;;
3561;SDS011;1795;52.074;4.754;2022-12-10T05:44:09;48.20;;;25.13;;
3561;SDS011;1795;52.074;4.754;2022-12-10T05:46:37;49.67;;;24.77;;
3561;SDS011;1795;52.074;4.754;2022-12-10T05:49:05;51.53;;;24.80;;
3561;SDS011;1795;52.074;4.754;2022-12-10T05:51:35;51.05;;;25.95;;
3561;SDS011;1795;52.074;4.754;2022-12-10T05:54:05;50.03;;;25.20;;
3561;SDS011;1795;52.074;4.754;2022-12-10T05:56:35;48.97;;;25.55;;
3561;SDS011;1795;52.074;4.754;2022-12-10T05:59:04;49.70;;;24.58;;
3561;SDS011;1795;52.074;4.754;2022-12-10T06:01:43;46.85;;;24.17;;
3561;SDS011;1795;52.074;4.754;2022-12-10T06:04:11;48.03;;;24.00;;
3561;SDS011;1795;52.074;4.754;2022-12-10T06:06:39;45.10;;;24.47;;
3561;SDS011;1795;52.074;4.754;2022-12-10T06:09:10;49.90;;;25.20;;
3561;SDS011;1795;52.074;4.754;2022-12-10T06:11:40;44.38;;;23.70;;
3561;SDS011;1795;52.074;4.754;2022-12-10T06:14:08;44.22;;;23.00;;
3561;SDS011;1795;52.074;4.754;2022-12-10T06:16:38;46.58;;;25.35;;
3561;SDS011;1795;52.074;4.754;2022-12-10T06:19:09;43.70;;;23.73;;
3561;SDS011;1795;52.074;4.754;2022-12-10T06:21:37;46.20;;;24.05;;
3561;SDS011;1795;52.074;4.754;2022-12-10T06:24:05;44.10;;;23.55;;
3561;SDS011;1795;52.074;4.754;2022-12-10T06:26:34;47.42;;;25.40;;
3561;SDS011;1795;52.074;4.754;2022-12-10T06:29:02;43.38;;;23.80;;
3561;SDS011;1795;52.074;4.754;2022-12-10T06:31:31;44.15;;;24.58;;
3561;SDS011;1795;52.074;4.754;2022-12-10T06:33:59;47.73;;;25.50;;
3561;SDS011;1795;52.074;4.754;2022-12-10T06:36:29;47.97;;;24.90;;
3561;SDS011;1795;52.074;4.754;2022-12-10T06:38:57;46.67;;;24.13;;
3561;SDS011;1795;52.074;4.754;2022-12-10T06:41:25;45.00;;;24.48;;
3561;SDS011;1795;52.074;4.754;2022-12-10T06:43:53;45.67;;;24.70;;
3561;SDS011;1795;52.074;4.754;2022-12-10T06:46:25;44.63;;;23.88;;
3561;SDS011;1795;52.074;4.754;2022-12-10T06:48:54;43.30;;;23.73;;
3561;SDS011;1795;52.074;4.754;2022-12-10T06:51:23;45.92;;;24.33;;
3561;SDS011;1795;52.074;4.754;2022-12-10T06:53:52;44.22;;;24.77;;
3561;SDS011;1795;52.074;4.754;2022-12-10T06:56:20;44.85;;;24.15;;
3561;SDS011;1795;52.074;4.754;2022-12-10T06:58:49;43.20;;;24.00;;
3561;SDS011;1795;52.074;4.754;2022-12-10T07:01:17;46.05;;;24.65;;
3561;SDS011;1795;52.074;4.754;2022-12-10T07:03:47;49.13;;;25.65;;
3561;SDS011;1795;52.074;4.754;2022-12-10T07:06:16;46.17;;;25.08;;
3561;SDS011;1795;52.074;4.754;2022-12-10T07:08:45;44.90;;;23.50;;
3561;SDS011;1795;52.074;4.754;2022-12-10T07:11:16;46.97;;;24.75;;
3561;SDS011;1795;52.074;4.754;2022-12-10T07:13:45;40.30;;;23.07;;
3561;SDS011;1795;52.074;4.754;2022-12-10T07:16:14;45.78;;;23.98;;
3561;SDS011;1795;52.074;4.754;2022-12-10T07:18:44;44.40;;;23.60;;
3561;SDS011;1795;52.074;4.754;2022-12-10T07:21:18;40.25;;;22.33;;
3561;SDS011;1795;52.074;4.754;2022-12-10T07:23:47;42.45;;;23.30;;
3561;SDS011;1795;52.074;4.754;2022-12-10T07:26:17;42.67;;;23.73;;
3561;SDS011;1795;52.074;4.754;2022-12-10T07:28:45;42.47;;;22.20;;
3561;SDS011;1795;52.074;4.754;2022-12-10T07:31:19;44.78;;;23.40;;
3561;SDS011;1795;52.074;4.754;2022-12-10T07:33:48;44.83;;;22.80;;
3561;SDS011;1795;52.074;4.754;2022-12-10T07:36:17;43.55;;;23.65;;
3561;SDS011;1795;52.074;4.754;2022-12-10T07:38:45;47.50;;;24.60;;
3561;SDS011;1795;52.074;4.754;2022-12-10T07:41:14;46.20;;;23.92;;
3561;SDS011;1795;52.074;4.754;2022-12-10T07:43:44;48.30;;;25.23;;
3561;SDS011;1795;52.074;4.754;2022-12-10T07:46:13;44.80;;;24.33;;
3561;SDS011;1795;52.074;4.754;2022-12-10T07:48:44;45.72;;;24.42;;
3561;SDS011;1795;52.074;4.754;2022-12-10T07:51:14;43.07;;;22.53;;
3561;SDS011;1795;52.074;4.754;2022-12-10T07:53:43;45.38;;;23.30;;
3561;SDS011;1795;52.074;4.754;2022-12-10T07:56:12;47.42;;;24.33;;
3561;SDS011;1795;52.074;4.754;2022-12-10T07:58:40;48.30;;;24.80;;
3561;SDS011;1795;52.074;4.754;2022-12-10T08:01:11;46.58;;;24.52;;
3561;SDS011;1795;52.074;4.754;2022-12-10T08:03:41;48.17;;;24.55;;
3561;SDS011;1795;52.074;4.754;2022-12-10T08:06:10;45.17;;;23.98;;
3561;SDS011;1795;52.074;4.754;2022-12-10T08:08:40;44.95;;;23.95;;
3561;SDS011;1795;52.074;4.754;2022-12-10T08:11:09;44.55;;;25.00;;
3561;SDS011;1795;52.074;4.754;2022-12-10T08:13:38;46.58;;;24.45;;
3561;SDS011;1795;52.074;4.754;2022-12-10T08:16:08;46.13;;;24.40;;
3561;SDS011;1795;52.074;4.754;2022-12-10T08:18:39;44.67;;;24.48;;
3561;SDS011;1795;52.074;4.754;2022-12-10T08:21:08;45.47;;;24.55;;
3561;SDS011;1795;52.074;4.754;2022-12-10T08:23:38;47.83;;;24.77;;
3561;SDS011;1795;52.074;4.754;2022-12-10T08:26:07;47.00;;;24.10;;
3561;SDS011;1795;52.074;4.754;2022-12-10T08:28:36;45.38;;;23.52;;
3561;SDS011;1795;52.074;4.754;2022-12-10T08:31:06;47.05;;;23.63;;
3561;SDS011;1795;52.074;4.754;2022-12-10T08:33:37;40.70;;;22.40;;
3561;SDS011;1795;52.074;4.754;2022-12-10T08:36:06;46.33;;;24.83;;
3561;SDS011;1795;52.074;4.754;2022-12-10T08:38:37;43.65;;;23.15;;
3561;SDS011;1795;52.074;4.754;2022-12-10T08:41:06;42.75;;;23.38;;
3561;SDS011;1795;52.074;4.754;2022-12-10T08:43:35;44.75;;;24.13;;
3561;SDS011;1795;52.074;4.754;2022-12-10T08:46:03;46.03;;;24.80;;
3561;SDS011;1795;52.074;4.754;2022-12-10T08:48:32;46.22;;;23.63;;
3561;SDS011;1795;52.074;4.754;2022-12-10T08:51:02;46.45;;;22.77;;
3561;SDS011;1795;52.074;4.754;2022-12-10T08:53:30;40.50;;;23.45;;
3561;SDS011;1795;52.074;4.754;2022-12-10T08:55:59;42.17;;;23.70;;
3561;SDS011;1795;52.074;4.754;2022-12-10T08:58:27;47.77;;;25.50;;
3561;SDS011;1795;52.074;4.754;2022-12-10T09:00:55;41.50;;;22.03;;
3561;SDS011;1795;52.074;4.754;2022-12-10T09:03:23;43.58;;;23.38;;
3561;SDS011;1795;52.074;4.754;2022-12-10T09:05:51;42.75;;;22.85;;
3561;SDS011;1795;52.074;4.754;2022-12-10T09:08:20;44.78;;;24.05;;
3561;SDS011;1795;52.074;4.754;2022-12-10T09:10:49;44.08;;;22.70;;
3561;SDS011;1795;52.074;4.754;2022-12-10T09:13:17;42.65;;;22.08;;
3561;SDS011;1795;52.074;4.754;2022-12-10T09:15:48;43.40;;;22.77;;
3561;SDS011;1795;52.074;4.754;2022-12-10T09:18:18;41.90;;;22.90;;
3561;SDS011;1795;52.074;4.754;2022-12-10T09:20:46;41.35;;;22.55;;
3561;SDS011;1795;52.074;4.754;2022-12-10T09:23:14;45.13;;;23.30;;
3561;SDS011;1795;52.074;4.754;2022-12-10T09:25:43;41.83;;;22.15;;
3561;SDS011;1795;52.074;4.754;2022-12-10T09:28:11;41.85;;;22.15;;
3561;SDS011;1795;52.074;4.754;2022-12-10T09:30:40;41.60;;;21.98;;
3561;SDS011;1795;52.074;4.754;2022-12-10T09:33:08;39.38;;;21.08;;
3561;SDS011;1795;52.074;4.754;2022-12-10T09:35:39;43.90;;;23.27;;
3561;SDS011;1795;52.074;4.754;2022-12-10T09:38:08;38.97;;;21.50;;
3561;SDS011;1795;52.074;4.754;2022-12-10T09:40:38;41.88;;;22.73;;
3561;SDS011;1795;52.074;4.754;2022-12-10T09:43:14;41.95;;;22.90;;
3561;SDS011;1795;52.074;4.754;2022-12-10T09:45:50;39.15;;;20.63;;
3561;SDS011;1795;52.074;4.754;2022-12-10T09:48:25;44.13;;;22.07;;
3561;SDS011;1795;52.074;4.754;2022-12-10T09:51:01;41.23;;;21.97;;
3561;SDS011;1795;52.074;4.754;2022-12-10T09:53:36;42.42;;;22.17;;
3561;SDS011;1795;52.074;4.754;2022-12-10T09:56:06;44.25;;;23.92;;
3561;SDS011;1795;52.074;4.754;2022-12-10T09:58:43;44.33;;;23.45;;
3561;SDS011;1795;52.074;4.754;2022-12-10T10:01:12;43.93;;;23.20;;
3561;SDS011;1795;52.074;4.754;2022-12-10T10:03:42;47.40;;;24.33;;
3561;SDS011;1795;52.074;4.754;2022-12-10T10:06:14;43.13;;;22.85;;
3561;SDS011;1795;52.074;4.754;2022-12-10T10:08:43;45.30;;;23.57;;
3561;SDS011;1795;52.074;4.754;2022-12-10T10:11:14;42.70;;;22.65;;
3561;SDS011;1795;52.074;4.754;2022-12-10T10:13:48;45.88;;;23.13;;
3561;SDS011;1795;52.074;4.754;2022-12-10T10:16:21;48.78;;;25.10;;
3561;SDS011;1795;52.074;4.754;2022-12-10T10:18:54;50.85;;;25.83;;
3561;SDS011;1795;52.074;4.754;2022-12-10T10:21:25;46.10;;;24.98;;
3561;SDS011;1795;52.074;4.754;2022-12-10T10:23:55;51.88;;;24.80;;
3561;SDS011;1795;52.074;4.754;2022-12-10T10:26:24;49.40;;;24.48;;
3561;SDS011;1795;52.074;4.754;2022-12-10T10:28:55;45.60;;;23.73;;
3561;SDS011;1795;52.074;4.754;2022-12-10T10:31:26;46.95;;;25.30;;
3561;SDS011;1795;52.074;4.754;2022-12-10T10:33:56;47.50;;;24.65;;
3561;SDS011;1795;52.074;4.754;2022-12-10T10:36:26;49.28;;;25.42;;
3561;SDS011;1795;52.074;4.754;2022-12-10T10:38:55;52.25;;;26.20;;
3561;SDS011;1795;52.074;4.754;2022-12-10T10:41:24;52.30;;;25.95;;
3561;SDS011;1795;52.074;4.754;2022-12-10T10:43:58;46.90;;;25.15;;
3561;SDS011;1795;52.074;4.754;2022-12-10T10:46:30;48.97;;;24.45;;
3561;SDS011;1795;52.074;4.754;2022-12-10T10:49:12;54.10;;;25.13;;
3561;SDS011;1795;52.074;4.754;2022-12-10T10:51:45;51.37;;;24.60;;
3561;SDS011;1795;52.074;4.754;2022-12-10T10:54:17;47.28;;;23.67;;
3561;SDS011;1795;52.074;4.754;2022-12-10T10:57:01;51.63;;;25.33;;
3561;SDS011;1795;52.074;4.754;2022-12-10T10:59:33;53.30;;;26.08;;
3561;SDS011;1795;52.074;4.754;2022-12-10T11:02:04;53.40;;;25.70;;
3561;SDS011;1795;52.074;4.754;2022-12-10T11:04:45;52.78;;;25.90;;
3561;SDS011;1795;52.074;4.754;2022-12-10T11:07:19;50.55;;;25.42;;
3561;SDS011;1795;52.074;4.754;2022-12-10T11:09:52;53.08;;;26.50;;
3561;SDS011;1795;52.074;4.754;2022-12-10T11:12:27;52.22;;;26.13;;
3561;SDS011;1795;52.074;4.754;2022-12-10T11:15:27;53.20;;;25.73;;
3561;SDS011;1795;52.074;4.754;2022-12-10T11:17:58;53.13;;;27.70;;
3561;SDS011;1795;52.074;4.754;2022-12-10T11:20:27;62.00;;;28.45;;
3561;SDS011;1795;52.074;4.754;2022-12-10T11:22:57;57.45;;;27.58;;
3561;SDS011;1795;52.074;4.754;2022-12-10T11:25:31;59.42;;;27.58;;
3561;SDS011;1795;52.074;4.754;2022-12-10T11:28:12;56.13;;;27.50;;
3561;SDS011;1795;52.074;4.754;2022-12-10T11:31:03;67.85;;;29.58;;
3561;SDS011;1795;52.074;4.754;2022-12-10T11:33:42;64.90;;;28.85;;
3561;SDS011;1795;52.074;4.754;2022-12-10T11:36:22;69.03;;;30.63;;
3561;SDS011;1795;52.074;4.754;2022-12-10T11:39:02;63.78;;;29.80;;
3561;SDS011;1795;52.074;4.754;2022-12-10T11:41:43;72.97;;;30.83;;
3561;SDS011;1795;52.074;4.754;2022-12-10T11:44:19;75.60;;;31.83;;
3561;SDS011;1795;52.074;4.754;2022-12-10T11:46:59;74.60;;;32.20;;
3561;SDS011;1795;52.074;4.754;2022-12-10T11:49:53;71.97;;;31.25;;
3561;SDS011;1795;52.074;4.754;2022-12-10T11:52:36;76.35;;;31.63;;
3561;SDS011;1795;52.074;4.754;2022-12-10T11:55:18;76.73;;;31.27;;
3561;SDS011;1795;52.074;4.754;2022-12-10T11:58:02;82.85;;;34.45;;
3561;SDS011;1795;52.074;4.754;2022-12-10T12:00:46;79.90;;;34.80;;
3561;SDS011;1795;52.074;4.754;2022-12-10T12:03:37;81.90;;;34.78;;
3561;SDS011;1795;52.074;4.754;2022-12-10T12:06:32;93.10;;;34.75;;
3561;SDS011;1795;52.074;4.754;2022-12-10T12:09:19;89.07;;;35.20;;
3561;SDS011;1795;52.074;4.754;2022-12-10T12:12:04;85.22;;;34.45;;
3561;SDS011;1795;52.074;4.754;2022-12-10T12:14:43;92.85;;;35.17;;
3561;SDS011;1795;52.074;4.754;2022-12-10T12:17:15;88.28;;;35.00;;
3561;SDS011;1795;52.074;4.754;2022-12-10T12:19:50;85.85;;;35.15;;
3561;SDS011;1795;52.074;4.754;2022-12-10T12:22:23;86.88;;;34.40;;
3561;SDS011;1795;52.074;4.754;2022-12-10T12:24:54;79.80;;;32.77;;
3561;SDS011;1795;52.074;4.754;2022-12-10T12:27:27;84.03;;;33.60;;
3561;SDS011;1795;52.074;4.754;2022-12-10T12:30:04;76.97;;;32.72;;
3561;SDS011;1795;52.074;4.754;2022-12-10T12:32:43;81.95;;;32.70;;
3561;SDS011;1795;52.074;4.754;2022-12-10T12:35:19;89.00;;;34.53;;
3561;SDS011;1795;52.074;4.754;2022-12-10T12:37:52;90.23;;;34.60;;
3561;SDS011;1795;52.074;4.754;2022-12-10T12:40:25;87.18;;;34.08;;
3561;SDS011;1795;52.074;4.754;2022-12-10T12:42:58;90.10;;;34.05;;
3561;SDS011;1795;52.074;4.754;2022-12-10T12:45:31;90.50;;;36.28;;
3561;SDS011;1795;52.074;4.754;2022-12-10T12:48:06;88.70;;;34.30;;
3561;SDS011;1795;52.074;4.754;2022-12-10T12:50:46;83.87;;;33.80;;
3561;SDS011;1795;52.074;4.754;2022-12-10T12:53:17;88.45;;;35.38;;
3561;SDS011;1795;52.074;4.754;2022-12-10T12:55:50;86.63;;;34.92;;
3561;SDS011;1795;52.074;4.754;2022-12-10T12:58:26;92.15;;;34.22;;
3561;SDS011;1795;52.074;4.754;2022-12-10T13:01:10;86.53;;;34.47;;
3561;SDS011;1795;52.074;4.754;2022-12-10T13:03:46;89.53;;;34.15;;
3561;SDS011;1795;52.074;4.754;2022-12-10T13:06:20;90.57;;;36.05;;
3561;SDS011;1795;52.074;4.754;2022-12-10T13:08:52;99.20;;;36.38;;
3561;SDS011;1795;52.074;4.754;2022-12-10T13:11:28;88.50;;;36.85;;
3561;SDS011;1795;52.074;4.754;2022-12-10T13:14:03;90.27;;;36.07;;
3561;SDS011;1795;52.074;4.754;2022-12-10T13:16:48;94.82;;;38.30;;
3561;SDS011;1795;52.074;4.754;2022-12-10T13:19:27;100.20;;;38.35;;
3561;SDS011;1795;52.074;4.754;2022-12-10T13:22:00;93.28;;;36.88;;
3561;SDS011;1795;52.074;4.754;2022-12-10T13:24:59;94.90;;;37.92;;
3561;SDS011;1795;52.074;4.754;2022-12-10T13:27:39;98.95;;;38.90;;
3561;SDS011;1795;52.074;4.754;2022-12-10T13:30:25;88.95;;;36.75;;
3561;SDS011;1795;52.074;4.754;2022-12-10T13:33:13;97.47;;;37.20;;
3561;SDS011;1795;52.074;4.754;2022-12-10T13:35:49;93.95;;;36.88;;
3561;SDS011;1795;52.074;4.754;2022-12-10T13:38:24;102.60;;;38.85;;
3561;SDS011;1795;52.074;4.754;2022-12-10T13:40:59;114.18;;;44.40;;
3561;SDS011;1795;52.074;4.754;2022-12-10T13:43:57;109.50;;;42.33;;
3561;SDS011;1795;52.074;4.754;2022-12-10T13:46:55;106.10;;;40.50;;
3561;SDS011;1795;52.074;4.754;2022-12-10T13:49:25;107.10;;;39.20;;
3561;SDS011;1795;52.074;4.754;2022-12-10T13:51:57;102.70;;;39.58;;
3561;SDS011;1795;52.074;4.754;2022-12-10T13:57:34;110.22;;;39.03;;
3561;SDS011;1795;52.074;4.754;2022-12-10T14:00:13;94.28;;;37.80;;
3561;SDS011;1795;52.074;4.754;2022-12-10T14:02:57;102.03;;;41.63;;
3561;SDS011;1795;52.074;4.754;2022-12-10T14:05:53;119.90;;;48.00;;
3561;SDS011;1795;52.074;4.754;2022-12-10T14:08:31;111.70;;;47.58;;
3561;SDS011;1795;52.074;4.754;2022-12-10T14:11:02;124.22;;;49.15;;
3561;SDS011;1795;52.074;4.754;2022-12-10T14:13:33;112.33;;;45.63;;
3561;SDS011;1795;52.074;4.754;2022-12-10T14:16:10;115.50;;;46.90;;
3561;SDS011;1795;52.074;4.754;2022-12-10T14:18:41;110.53;;;44.67;;
3561;SDS011;1795;52.074;4.754;2022-12-10T14:21:10;97.00;;;41.92;;
3561;SDS011;1795;52.074;4.754;2022-12-10T14:23:43;100.97;;;40.65;;
3561;SDS011;1795;52.074;4.754;2022-12-10T14:26:26;99.15;;;39.53;;
3561;SDS011;1795;52.074;4.754;2022-12-10T14:28:56;92.22;;;39.90;;
3561;SDS011;1795;52.074;4.754;2022-12-10T14:31:26;96.55;;;38.85;;
3561;SDS011;1795;52.074;4.754;2022-12-10T14:33:59;94.17;;;37.37;;
3561;SDS011;1795;52.074;4.754;2022-12-10T14:36:29;87.97;;;37.95;;
3561;SDS011;1795;52.074;4.754;2022-12-10T14:38:59;91.07;;;37.13;;
3561;SDS011;1795;52.074;4.754;2022-12-10T14:41:30;84.23;;;35.83;;
3561;SDS011;1795;52.074;4.754;2022-12-10T14:44:06;90.77;;;35.57;;
3561;SDS011;1795;52.074;4.754;2022-12-10T14:46:37;83.43;;;36.58;;
3561;SDS011;1795;52.074;4.754;2022-12-10T14:49:06;80.00;;;35.35;;
3561;SDS011;1795;52.074;4.754;2022-12-10T14:51:40;84.03;;;34.33;;
3561;SDS011;1795;52.074;4.754;2022-12-10T14:54:22;79.00;;;33.95;;
3561;SDS011;1795;52.074;4.754;2022-12-10T14:56:53;77.68;;;34.17;;
3561;SDS011;1795;52.074;4.754;2022-12-10T14:59:23;75.60;;;34.22;;
3561;SDS011;1795;52.074;4.754;2022-12-10T15:01:59;79.55;;;35.78;;
3561;SDS011;1795;52.074;4.754;2022-12-10T15:04:31;72.82;;;31.63;;
3561;SDS011;1795;52.074;4.754;2022-12-10T15:07:08;72.72;;;32.55;;
3561;SDS011;1795;52.074;4.754;2022-12-10T15:09:41;73.53;;;32.42;;
3561;SDS011;1795;52.074;4.754;2022-12-10T15:12:21;74.20;;;32.63;;
3561;SDS011;1795;52.074;4.754;2022-12-10T15:14:59;75.43;;;33.60;;
3561;SDS011;1795;52.074;4.754;2022-12-10T15:17:33;69.32;;;32.85;;
3561;SDS011;1795;52.074;4.754;2022-12-10T15:20:09;74.28;;;32.28;;
3561;SDS011;1795;52.074;4.754;2022-12-10T15:22:48;79.38;;;34.38;;